East Wemyss, United Kingdom
Current Conditions -  °F | °C
As of 1:50 PM on Wednesday 26 Nov 2014 (Local Time) from EGQL Reporting Station
Overcast Overcast  
Wind Chill: 43°   Ceiling: 3500
Heat Index: 43°   Visibility: 6mi
Dew Point: 43°   Wind: 3mph
Humidity: 100%   Direction: 320°NW
Pressure: 29.94"   Gusts: NA
Location:  56.16°N, 3.06°W
Report Text: EGQL 261350Z 32003KT 9999 SCT007 OVC035 06/06 Q1014 GRN
Loading
Personal Weather Stations






























Interactive Weather Map New forecast layout! Learn more

10-Day Weather Forecast

Advertisements
Track Severe Weather on mobile